createdAt,value
2022-08-26T00:00:58.986Z,90.18
2022-08-26T00:04:01.299Z,90.65
2022-08-26T00:07:03.811Z,90.52
2022-08-26T00:10:07.400Z,90.69
2022-08-26T00:13:10.598Z,90.64
2022-08-26T00:16:12.752Z,90.32
2022-08-26T00:19:19.339Z,90.64
2022-08-26T00:22:22.314Z,90.04
2022-08-26T00:25:24.526Z,90.41
2022-08-26T00:28:26.972Z,90.99
2022-08-26T00:31:31.046Z,90.81
2022-08-26T00:34:35.205Z,90.85
2022-08-26T00:37:37.921Z,91.68
2022-08-26T00:40:47.301Z,91.39
2022-08-26T00:43:50.981Z,91.70
2022-08-26T00:47:02.506Z,91.66
2022-08-26T00:50:08.889Z,91.66
2022-08-26T00:53:12.930Z,91.68
2022-08-26T00:56:26.805Z,91.18
2022-08-26T00:59:33.048Z,91.10
2022-08-26T01:02:35.559Z,91.95
2022-08-26T01:05:41.397Z,92.18
2022-08-26T01:08:43.661Z,91.91
2022-08-26T01:11:48.746Z,92.18
2022-08-26T01:14:50.877Z,92.42
2022-08-26T01:17:53.175Z,91.93
2022-08-26T01:21:16.535Z,92.02
2022-08-26T01:24:19.684Z,92.14
2022-08-26T01:27:21.826Z,92.42
2022-08-26T01:30:27.586Z,92.47
2022-08-26T01:33:42.451Z,92.07
2022-08-26T01:36:50.588Z,92.06
2022-08-26T01:39:57.339Z,91.76
2022-08-26T01:43:05.790Z,92.26
2022-08-26T01:46:08.799Z,92.22
2022-08-26T01:49:13.906Z,92.64
2022-08-26T01:52:21.778Z,92.97
2022-08-26T01:55:32.447Z,93.28
2022-08-26T01:58:39.791Z,93.86
2022-08-26T02:01:41.824Z,93.66
2022-08-26T02:04:52.535Z,94.22
2022-08-26T02:07:54.576Z,93.99
2022-08-26T02:10:56.645Z,94.16
2022-08-26T02:14:03.732Z,94.66
2022-08-26T02:17:07.880Z,94.81
2022-08-26T02:20:13.421Z,95.32
2022-08-26T02:23:17.011Z,95.43
2022-08-26T02:26:22.653Z,95.25
2022-08-26T02:29:34.409Z,95.05
2022-08-26T02:32:36.413Z,95.43
2022-08-26T02:35:39.202Z,95.25
2022-08-26T02:38:41.205Z,95.24
2022-08-26T02:41:45.501Z,95.06
2022-08-26T02:44:48.064Z,95.14
2022-08-26T02:47:51.405Z,95.05
2022-08-26T02:50:54.297Z,95.23
2022-08-26T02:53:56.351Z,94.82
2022-08-26T02:56:58.393Z,94.96
2022-08-26T03:00:01.325Z,94.63
2022-08-26T03:03:04.184Z,94.96
2022-08-26T03:06:06.448Z,95.35
2022-08-26T03:09:08.966Z,95.03
2022-08-26T03:12:10.979Z,95.42
2022-08-26T03:15:18.651Z,95.86
2022-08-26T03:18:20.664Z,96.34
2022-08-26T03:21:23.190Z,95.95
2022-08-26T03:24:26.492Z,95.19
2022-08-26T03:27:28.500Z,95.04
2022-08-26T03:30:34.814Z,94.33
2022-08-26T03:33:36.833Z,94.83
2022-08-26T03:36:39.147Z,94.38
2022-08-26T03:39:43.675Z,94.15
2022-08-26T03:42:45.685Z,94.39
2022-08-26T03:45:47.757Z,94.57
2022-08-26T03:48:49.784Z,95.01
2022-08-26T03:51:51.783Z,95.01
2022-08-26T03:54:53.804Z,95.39
2022-08-26T03:57:55.846Z,95.98
2022-08-26T04:00:58.415Z,96.16
2022-08-26T04:04:00.900Z,95.75
2022-08-26T04:07:03.385Z,96.56
2022-08-26T04:10:06.105Z,95.73
2022-08-26T04:13:08.321Z,95.30
2022-08-26T04:16:10.720Z,94.81
2022-08-26T04:19:15.165Z,94.25
2022-08-26T04:22:17.177Z,94.20
2022-08-26T04:25:27.066Z,94.12
2022-08-26T04:28:29.725Z,93.81
2022-08-26T04:31:34.537Z,93.91
2022-08-26T04:34:36.621Z,94.32
2022-08-26T04:37:38.722Z,94.61
2022-08-26T04:40:46.821Z,94.28
2022-08-26T04:43:49.077Z,93.81
2022-08-26T04:46:51.696Z,94.53
2022-08-26T04:49:56.960Z,94.30
2022-08-26T04:52:59.646Z,94.23
2022-08-26T04:56:01.818Z,94.36
2022-08-26T04:59:08.177Z,93.80
2022-08-26T05:02:18.984Z,93.25
2022-08-26T05:05:21.011Z,92.60
2022-08-26T05:08:23.575Z,91.82
2022-08-26T05:11:25.605Z,89.63
2022-08-26T05:14:27.644Z,89.20
2022-08-26T05:17:29.675Z,89.43
2022-08-26T05:20:32.494Z,89.36
2022-08-26T05:23:36.002Z,89.20
2022-08-26T05:26:38.059Z,89.21
2022-08-26T05:29:40.817Z,89.59
2022-08-26T05:32:42.825Z,89.91
2022-08-26T05:35:45.893Z,89.53
2022-08-26T05:38:48.338Z,89.46
2022-08-26T05:41:50.557Z,88.65
2022-08-26T05:44:55.653Z,89.57
2022-08-26T05:47:58.164Z,89.74
2022-08-26T05:51:06.657Z,89.10
2022-08-26T05:54:10.321Z,89.44
2022-08-26T05:57:12.734Z,88.40
2022-08-26T06:00:15.149Z,88.24
2022-08-26T06:03:17.188Z,88.14
2022-08-26T06:06:27.947Z,87.56
2022-08-26T06:09:31.091Z,87.46
2022-08-26T06:12:33.424Z,87.54
2022-08-26T06:15:39.725Z,86.91
2022-08-26T06:18:46.705Z,86.74
2022-08-26T06:21:51.339Z,87.11
2022-08-26T06:24:56.369Z,87.10
2022-08-26T06:27:58.381Z,86.90
2022-08-26T06:31:02.698Z,86.31
2022-08-26T06:34:10.332Z,84.67
2022-08-26T06:37:13.844Z,84.79
2022-08-26T06:40:15.981Z,84.35
2022-08-26T06:43:20.003Z,84.21
2022-08-26T06:46:23.189Z,84.79
2022-08-26T06:49:28.105Z,85.01
2022-08-26T06:52:30.144Z,84.26
2022-08-26T06:55:32.154Z,84.14
2022-08-26T06:58:36.569Z,83.98
2022-08-26T07:01:43.035Z,83.51
2022-08-26T07:04:47.728Z,83.79
2022-08-26T07:07:50.072Z,83.50
2022-08-26T07:10:52.106Z,83.60
2022-08-26T07:13:58.114Z,82.99
2022-08-26T07:17:00.105Z,83.51
2022-08-26T07:20:02.210Z,83.53
2022-08-26T07:23:04.221Z,84.07
2022-08-26T07:26:08.051Z,83.38
2022-08-26T07:29:10.520Z,83.66
2022-08-26T07:32:14.780Z,84.48
2022-08-26T07:35:17.121Z,83.83
2022-08-26T07:38:19.277Z,83.33
2022-08-26T07:41:23.570Z,82.72
2022-08-26T07:44:25.627Z,81.17
2022-08-26T07:47:27.666Z,80.65
2022-08-26T07:50:49.411Z,79.73
2022-08-26T07:53:52.735Z,79.90
2022-08-26T07:56:56.027Z,80.70
2022-08-26T07:59:58.857Z,81.69
2022-08-26T08:03:03.217Z,81.86
2022-08-26T08:06:05.371Z,82.08
2022-08-26T08:09:08.797Z,81.69
2022-08-26T08:12:14.287Z,80.63
2022-08-26T08:15:17.706Z,80.15
2022-08-26T08:18:20.513Z,79.49
2022-08-26T08:21:25.095Z,80.34
2022-08-26T08:24:27.157Z,79.70
2022-08-26T08:27:29.167Z,79.68
2022-08-26T08:30:32.164Z,79.08
2022-08-26T08:33:37.116Z,76.59
2022-08-26T08:36:40.543Z,76.97
2022-08-26T08:39:43.708Z,78.71
2022-08-26T08:42:54.695Z,79.15
2022-08-26T08:46:04.328Z,78.92
2022-08-26T08:49:06.478Z,78.13
2022-08-26T08:52:27.314Z,76.78
2022-08-26T08:55:42.890Z,77.22
2022-08-26T08:58:59.332Z,76.20
2022-08-26T09:02:19.461Z,75.90
2022-08-26T09:05:24.421Z,74.30
2022-08-26T09:08:32.047Z,74.34
2022-08-26T09:11:35.519Z,73.50
2022-08-26T09:14:38.377Z,73.91
2022-08-26T09:17:51.290Z,72.52
2022-08-26T09:21:04.784Z,70.96
2022-08-26T09:24:07.740Z,69.93
2022-08-26T09:27:41.429Z,69.42
2022-08-26T09:30:46.452Z,68.60
2022-08-26T09:33:48.649Z,68.71
2022-08-26T09:36:53.224Z,69.14
2022-08-26T09:40:10.919Z,70.02
2022-08-26T09:43:22.393Z,70.80
2022-08-26T09:46:28.018Z,71.82
2022-08-26T09:49:35.709Z,71.92
2022-08-26T09:52:38.381Z,71.50
2022-08-26T09:55:46.264Z,70.73
2022-08-26T09:58:48.373Z,68.24
2022-08-26T10:01:50.447Z,66.92
2022-08-26T10:04:57.491Z,68.27
2022-08-26T10:08:27.289Z,69.33
2022-08-26T10:11:37.836Z,72.35
2022-08-26T10:14:50.999Z,73.45
2022-08-26T10:18:15.088Z,74.53
2022-08-26T10:21:29.897Z,73.31
2022-08-26T10:24:39.468Z,74.78
2022-08-26T10:27:52.782Z,74.68
2022-08-26T10:31:04.658Z,74.11
2022-08-26T10:34:06.993Z,74.01
2022-08-26T10:37:19.196Z,72.99
2022-08-26T10:40:45.586Z,72.33
2022-08-26T10:44:02.786Z,70.10
2022-08-26T10:47:16.279Z,68.20
2022-08-26T10:50:22.309Z,68.16
2022-08-26T10:53:51.735Z,69.67
2022-08-26T10:57:22.286Z,70.46
2022-08-26T11:00:32.646Z,70.47
2022-08-26T11:04:01.564Z,69.77
2022-08-26T11:07:34.586Z,69.65
2022-08-26T11:10:42.487Z,70.20
2022-08-26T11:13:56.352Z,69.10
2022-08-26T11:16:59.633Z,68.26
2022-08-26T11:20:04.640Z,67.65
2022-08-26T11:23:20.301Z,66.07
2022-08-26T11:26:37.715Z,65.67
2022-08-26T11:30:09.250Z,63.88
2022-08-26T11:33:49.619Z,64.60
2022-08-26T11:36:57.819Z,66.41
2022-08-26T11:40:01.511Z,65.95
2022-08-26T11:43:19.465Z,65.52
2022-08-26T11:46:31.339Z,65.17
2022-08-26T11:49:34.221Z,63.45
2022-08-26T11:52:36.520Z,61.54
2022-08-26T11:55:43.141Z,62.69
2022-08-26T11:58:46.718Z,62.69
2022-08-26T12:01:50.217Z,61.04
2022-08-26T12:04:53.879Z,60.53
2022-08-26T12:08:07.131Z,61.89
2022-08-26T12:11:21.961Z,60.44
2022-08-26T12:14:27.336Z,62.34
2022-08-26T12:17:29.849Z,62.87
2022-08-26T12:20:38.790Z,64.16
2022-08-26T12:23:47.492Z,64.43
2022-08-26T12:27:06.034Z,63.82
2022-08-26T12:30:13.907Z,62.36
2022-08-26T12:33:23.032Z,63.40
2022-08-26T12:36:35.192Z,64.25
2022-08-26T12:39:40.518Z,65.78
2022-08-26T12:42:42.518Z,65.69
2022-08-26T12:45:56.842Z,66.41
2022-08-26T12:48:59.576Z,66.29
2022-08-26T12:52:01.839Z,66.84
2022-08-26T12:55:18.962Z,67.37
2022-08-26T12:58:28.588Z,68.05
2022-08-26T13:01:37.607Z,68.08
2022-08-26T13:04:42.442Z,66.75
2022-08-26T13:07:44.498Z,65.72
2022-08-26T13:10:47.394Z,65.42
2022-08-26T13:13:53.441Z,65.17
2022-08-26T13:16:55.609Z,64.71
2022-08-26T13:20:03.307Z,64.95
2022-08-26T13:23:06.002Z,64.97
2022-08-26T13:26:08.001Z,64.61
2022-08-26T13:29:11.205Z,65.42
2022-08-26T13:32:14.284Z,65.07
2022-08-26T13:35:16.368Z,64.68
2022-08-26T13:38:33.218Z,64.05
2022-08-26T13:41:36.045Z,64.60
2022-08-26T13:44:38.131Z,63.17
2022-08-26T13:47:40.152Z,62.16
2022-08-26T13:50:42.149Z,62.77
2022-08-26T13:53:44.361Z,62.15
2022-08-26T13:56:46.394Z,61.27
2022-08-26T13:59:48.410Z,61.16
2022-08-26T14:02:50.431Z,60.32
2022-08-26T14:05:52.866Z,59.61
2022-08-26T14:08:54.892Z,59.74
2022-08-26T14:11:58.928Z,58.98
2022-08-26T14:15:01.958Z,57.80
2022-08-26T14:18:05.721Z,58.86
2022-08-26T14:21:12.602Z,59.42
2022-08-26T14:24:14.673Z,60.27
2022-08-26T14:27:16.708Z,60.56
2022-08-26T14:30:20.236Z,59.92
2022-08-26T14:33:25.799Z,60.62
2022-08-26T14:36:28.549Z,58.80
2022-08-26T14:39:30.613Z,59.14
2022-08-26T14:42:32.868Z,58.64
2022-08-26T14:48:47.222Z,58.83
2022-08-26T14:51:49.658Z,58.66
2022-08-26T14:54:55.003Z,56.56
2022-08-26T14:57:57.569Z,54.89
2022-08-26T15:00:59.621Z,55.76
2022-08-26T15:04:06.316Z,54.28
2022-08-26T15:07:08.497Z,54.57
2022-08-26T15:10:15.765Z,56.13
2022-08-26T15:13:17.783Z,56.85
2022-08-26T15:16:20.220Z,56.69
2022-08-26T15:19:28.575Z,56.82
2022-08-26T15:22:30.585Z,57.18
2022-08-26T15:25:32.679Z,56.75
2022-08-26T15:28:35.608Z,56.85
2022-08-26T15:31:37.758Z,58.43
2022-08-26T15:34:39.815Z,57.17
2022-08-26T15:37:41.835Z,57.60
2022-08-26T15:40:44.444Z,57.98
2022-08-26T15:43:46.475Z,58.55
2022-08-26T15:46:49.814Z,57.89
2022-08-26T15:49:51.911Z,57.58
2022-08-26T15:52:53.948Z,58.11
2022-08-26T15:55:57.317Z,56.95
2022-08-26T15:59:00.775Z,57.46
2022-08-26T16:02:03.569Z,58.13
2022-08-26T16:05:05.967Z,58.70
2022-08-26T16:08:08.423Z,59.23
2022-08-26T16:11:11.849Z,59.23
2022-08-26T16:14:13.856Z,58.95
2022-08-26T16:17:15.899Z,58.54
2022-08-26T16:20:17.962Z,59.20
2022-08-26T16:23:21.070Z,59.33
2022-08-26T16:26:26.835Z,58.93
2022-08-26T16:29:28.880Z,59.63
2022-08-26T16:32:31.429Z,59.60
2022-08-26T16:35:33.775Z,60.93
2022-08-26T16:38:37.282Z,61.68
2022-08-26T16:41:39.383Z,61.01
2022-08-26T16:44:41.393Z,61.37
2022-08-26T16:47:43.445Z,61.26
2022-08-26T16:50:45.724Z,60.69
2022-08-26T16:53:47.756Z,60.85
2022-08-26T16:56:49.801Z,60.27
2022-08-26T16:59:51.829Z,60.06
2022-08-26T17:02:58.505Z,61.09
2022-08-26T17:06:00.814Z,59.87
2022-08-26T17:09:02.885Z,60.01
2022-08-26T17:12:05.031Z,60.35
2022-08-26T17:15:08.513Z,60.79
2022-08-26T17:18:10.565Z,61.17
2022-08-26T17:21:13.517Z,61.40
2022-08-26T17:24:15.640Z,62.28
2022-08-26T17:27:17.648Z,62.88
2022-08-26T17:30:21.035Z,63.67
2022-08-26T17:33:24.601Z,63.26
2022-08-26T17:36:28.021Z,63.51
2022-08-26T17:39:30.350Z,63.49
2022-08-26T17:42:37.602Z,62.63
2022-08-26T17:45:40.553Z,62.13
2022-08-26T17:48:42.575Z,62.33
2022-08-26T17:51:44.619Z,62.23
2022-08-26T17:54:46.665Z,62.64
2022-08-26T17:57:53.576Z,63.55
2022-08-26T18:01:08.236Z,64.60
2022-08-26T18:04:10.403Z,64.80
2022-08-26T18:07:12.733Z,66.09
2022-08-26T18:10:17.127Z,66.38
2022-08-26T18:13:19.149Z,67.09
2022-08-26T18:16:21.493Z,67.77
2022-08-26T18:19:23.541Z,68.22
2022-08-26T18:22:25.756Z,68.34
2022-08-26T18:25:27.794Z,69.16
2022-08-26T18:28:29.799Z,69.49
2022-08-26T18:31:34.625Z,70.03
2022-08-26T18:34:36.661Z,71.63
2022-08-26T18:37:39.004Z,71.38
2022-08-26T18:40:43.669Z,72.06
2022-08-26T18:43:46.105Z,71.91
2022-08-26T18:46:48.184Z,72.54
2022-08-26T18:49:50.223Z,73.15
2022-08-26T18:52:52.254Z,73.67
2022-08-26T18:55:54.298Z,73.37
2022-08-26T18:58:56.304Z,72.82
2022-08-26T19:01:59.016Z,73.85
2022-08-26T19:05:01.249Z,73.93
2022-08-26T19:08:03.481Z,74.51
2022-08-26T19:11:05.526Z,73.98
2022-08-26T19:14:11.120Z,74.69
2022-08-26T19:17:13.175Z,74.03
2022-08-26T19:20:15.270Z,74.86
2022-08-26T19:23:33.601Z,74.93
2022-08-26T19:26:36.243Z,75.15
2022-08-26T19:29:38.292Z,74.90
2022-08-26T19:32:40.303Z,75.22
2022-08-26T19:35:42.755Z,75.67
2022-08-26T19:38:45.789Z,75.63
2022-08-26T19:41:48.128Z,76.23
2022-08-26T19:44:50.144Z,76.41
2022-08-26T19:47:52.583Z,77.08
2022-08-26T19:50:56.274Z,77.18
2022-08-26T19:54:00.595Z,77.56
2022-08-26T19:57:02.620Z,77.70
2022-08-26T20:00:13.421Z,77.56
2022-08-26T20:03:15.956Z,78.15
2022-08-26T20:06:18.607Z,78.31
2022-08-26T20:09:20.670Z,78.64
2022-08-26T20:12:22.796Z,79.14
2022-08-26T20:15:24.984Z,79.56
2022-08-26T20:18:30.559Z,79.47
2022-08-26T20:21:35.527Z,80.40
2022-08-26T20:24:37.569Z,80.67
2022-08-26T20:27:39.580Z,80.71
2022-08-26T20:30:41.592Z,81.07
2022-08-26T20:33:46.380Z,81.51
2022-08-26T20:36:49.996Z,81.51
2022-08-26T20:39:54.985Z,81.97
2022-08-26T20:42:57.058Z,82.17
2022-08-26T20:45:59.876Z,82.74
2022-08-26T20:49:02.567Z,82.47
2022-08-26T20:52:08.021Z,82.08
2022-08-26T20:55:10.139Z,82.69
2022-08-26T20:58:12.149Z,83.04
2022-08-26T21:01:20.603Z,83.43
2022-08-26T21:04:24.891Z,83.29
2022-08-26T21:07:26.917Z,83.61
2022-08-26T21:10:29.641Z,83.12
2022-08-26T21:13:39.187Z,83.31
2022-08-26T21:16:50.741Z,83.83
2022-08-26T21:19:53.544Z,83.90
2022-08-26T21:22:55.566Z,83.70
2022-08-26T21:26:02.170Z,84.21
2022-08-26T21:29:05.130Z,84.46
2022-08-26T21:32:07.204Z,84.63
2022-08-26T21:35:09.912Z,84.54
2022-08-26T21:38:12.004Z,85.03
2022-08-26T21:41:17.818Z,85.31
2022-08-26T21:44:19.807Z,85.23
2022-08-26T21:47:21.861Z,85.31
2022-08-26T21:50:23.880Z,85.68
2022-08-26T21:53:25.902Z,86.55
2022-08-26T21:56:30.026Z,86.69
2022-08-26T21:59:32.085Z,87.89
2022-08-26T22:02:34.073Z,87.68
2022-08-26T22:05:43.088Z,87.95
2022-08-26T22:08:45.125Z,87.45
2022-08-26T22:11:47.528Z,88.59
2022-08-26T22:14:49.547Z,88.54
2022-08-26T22:17:51.554Z,88.51
2022-08-26T22:20:55.171Z,89.01
2022-08-26T22:23:58.100Z,89.08
2022-08-26T22:27:00.379Z,89.70
2022-08-26T22:30:02.386Z,89.21
2022-08-26T22:33:04.558Z,89.07
2022-08-26T22:36:06.830Z,89.86
2022-08-26T22:39:10.478Z,90.59
2022-08-26T22:42:12.700Z,90.57
2022-08-26T22:45:14.746Z,90.09
2022-08-26T22:48:19.382Z,89.93
2022-08-26T22:51:22.432Z,89.81
2022-08-26T22:54:24.690Z,90.35
2022-08-26T22:57:26.734Z,90.87
2022-08-26T23:00:31.839Z,91.07
2022-08-26T23:03:34.601Z,90.80
2022-08-26T23:06:38.084Z,91.33
2022-08-26T23:09:40.097Z,91.90
2022-08-26T23:12:42.106Z,92.18
2022-08-26T23:15:44.836Z,93.07
2022-08-26T23:18:46.844Z,94.36
2022-08-26T23:21:49.478Z,94.76
2022-08-26T23:24:51.470Z,95.48
2022-08-26T23:27:53.481Z,96.46
2022-08-26T23:30:55.484Z,96.83
2022-08-26T23:33:57.513Z,96.35
2022-08-26T23:37:00.911Z,97.27
2022-08-26T23:40:06.718Z,97.79
2022-08-26T23:43:10.358Z,97.83
2022-08-26T23:46:12.469Z,97.91
2022-08-26T23:49:14.564Z,97.55
2022-08-26T23:52:16.572Z,97.79
2022-08-26T23:55:18.647Z,98.47
2022-08-26T23:58:21.199Z,98.64
